Newcastle, NE

12:20 AM CDT on July 31, 2014 (GMT -0500)
Wayne Municipal (KLCG) Elev 1430 ft | 42.24 °N, 96.98 °W | Change Station

Current weather conditions updated 25 minutes ago

Clear
Clear
58 °F
Feels Like 58 °F
N
0
Wind Variable Wind from North

Today is forecast to be nearly the same temperature as yesterday.

Today
High -- | Low -- °F
--% Chance of Precip.
Yesterday
High -- | Low -- °F
Precip. -- in
6:18 AM 8:48 PM
Waxing Crescent, 16% visible
Pressure 30.13 in
Visibility 10.0 miles
Clouds Clear
Dew Point 56 °F
Humidity 92%
Rainfall 0.00 in
Snow Depth Not available.
UV 0 out of 12
Pollen 5.70 out of 12
Air Quality Not available.
Flu Activity Not available.
METAR KLCG 310455Z AUTO 00000KT 10SM CLR 14/13 A3013 RMK AO2 T01440132

More Conditions Fewer Conditions

Pressure 30.13 in
Visibility 10.0 miles
Clouds Clear
Dew Point 56 °F
Humidity 92%
Rainfall 0.00 in
Snow Depth Not available.
UV 0 out of 12
Pollen 5.70 out of 12
Air Quality Not available.
Flu Activity Not available.
METAR KLCG 310455Z AUTO 00000KT 10SM CLR 14/13 A3013 RMK AO2 T01440132

More Conditions Fewer Conditions

10-Day Weather Forecast

Almanac

Astronomy

Jul. 31, 2014 Rise Set
Actual Time 6:18 AM CDT 8:48 PM CDT
Civil Twilight 5:46 AM CDT 9:20 PM CDT
Nautical Twilight 5:06 AM CDT 10:00 PM CDT
Astronomical Twilight 4:21 AM CDT 10:45 PM CDT
Moon 10:54 AM CDT 10:54 PM CDT
Length of Visible Light 15h 34m
Length of Day
14h 30m
Tomorrow will be 2m 10s shorter.
Waxing Crescent, 16% of the Moon is Illuminated
Today
Waxing Crescent
Aug 3
First Quarter
Aug 10
Full
Aug 17
Last Quarter
Aug 25
New

Today's Extremes

State Highs State Lows

Community

WunderPhotos

Upload Photos

1,739,248 photos uploaded!

Nearby

Snow Depth

Station Depth Elevation
No new snow has been reported.

Earthquake Activity

City Distance Mag. Time & Date
No recent earthquake activity has been reported nearby.
Minimum magnitude displayed is 2.5.

Coastal Water Temperatures

Place Temperature
No Stations Reporting

Nearby Weather Stations

Station Location Temp. Dew Point Humidity Wind Precip. Elev Updated Type
Rural Elk Point, Elk Point, SD 58.3 °F 54 °F 87% East  at  0.0 mph 0.00 in / hr 1119 ft 12:20 AM CDT Normal
McCook Lake SD, McCook Lake, SD 64.5 °F 58 °F 78% East  at  2.0 mph 0.00 in / hr 1114 ft 12:20 AM CDT Rapid Fire
Northside Jones House, Sioux City, IA 57.0 °F 49 °F 74% ESE  at  0.0 mph 0.00 in / hr 1253 ft 12:14 AM CDT Normal

Show More Stations Show Fewer Stations